Time;durP1;ratioP1;P1;durP2;ratioP2;P2;SDS_P1;SDS_P2;PMS_P1;PMS_P2;Temp;Humidity;BMP_temperature;BMP_pressure;BME280_temperature;BME280_humidity;BME280_pressure;Samples;Min_cycle;Max_cycle;Signal;HPM_P1;HPM_P2
2023/12/27 00:01:15;;;;;;;4.20;2.67;;;;;;;9.43;62.04;98312.63;5051003;28;20178;-56
2023/12/27 00:03:40;;;;;;;1.55;1.45;;;;;;;9.48;62.50;98320.06;5051127;28;20205;-57
2023/12/27 00:06:05;;;;;;;3.72;1.63;;;;;;;9.40;62.74;98318.00;5051463;28;20647;-56
2023/12/27 00:08:31;;;;;;;3.00;1.75;;;;;;;9.76;63.12;98375.00;5054436;28;20177;-56
2023/12/27 00:10:56;;;;;;;1.83;1.70;;;;;;;9.87;63.06;98393.22;5055170;28;20178;-56
2023/12/27 00:13:22;;;;;;;3.17;2.20;;;;;;;9.72;62.74;98344.31;5055146;28;20178;-56
2023/12/27 00:15:47;;;;;;;4.55;2.55;;;;;;;9.89;63.51;98366.34;5055122;28;20282;-56
2023/12/27 00:18:16;;;;;;;3.08;2.78;;;;;;;9.79;64.35;98342.03;5055108;28;20679;-56
2023/12/27 00:20:41;;;;;;;3.22;2.92;;;;;;;9.86;63.48;98356.19;5054973;28;20667;-56
2023/12/27 00:23:07;;;;;;;4.22;2.42;;;;;;;9.96;62.62;98361.56;5054933;28;20205;-56
2023/12/27 00:25:32;;;;;;;5.15;2.83;;;;;;;10.34;61.35;98398.66;5054901;28;20219;-56
2023/12/27 00:27:58;;;;;;;2.90;2.28;;;;;;;10.50;60.84;98413.03;5054782;28;20181;-56
2023/12/27 00:30:23;;;;;;;2.17;1.85;;;;;;;10.20;59.45;98334.94;5054719;28;20174;-56
2023/12/27 00:32:48;;;;;;;5.70;2.50;;;;;;;11.06;58.14;98427.22;5055082;28;20210;-56
2023/12/27 00:35:14;;;;;;;4.68;2.53;;;;;;;11.31;57.00;98427.97;5052006;28;20198;-56
2023/12/27 00:37:39;;;;;;;2.60;2.38;;;;;;;11.04;57.14;98372.13;5052407;28;20236;-56
2023/12/27 00:40:06;;;;;;;3.42;2.40;;;;;;;10.95;56.92;98344.31;5052091;28;20240;-56
2023/12/27 00:42:31;;;;;;;4.65;2.20;;;;;;;11.44;56.93;98433.94;5051950;28;20377;-56
2023/12/27 00:44:56;;;;;;;2.47;2.22;;;;;;;10.87;57.19;98344.88;5051997;28;20630;-56
2023/12/27 00:47:22;;;;;;;2.10;1.85;;;;;;;11.35;56.35;98438.94;5052010;28;20185;-56
2023/12/27 00:49:47;;;;;;;2.25;2.00;;;;;;;10.88;57.25;98369.81;5051861;28;20190;-56
2023/12/27 00:52:13;;;;;;;3.75;3.13;;;;;;;10.93;58.66;98390.19;5051898;28;20255;-56
2023/12/27 00:54:38;;;;;;;4.25;3.05;;;;;;;11.03;59.24;98451.56;5051729;28;20198;-56
2023/12/27 00:57:04;;;;;;;3.38;2.92;;;;;;;11.00;59.37;98448.34;5051779;28;20253;-56
2023/12/27 00:59:29;;;;;;;5.22;2.83;;;;;;;10.93;60.16;98452.31;5051757;28;20186;-56
2023/12/27 01:01:56;;;;;;;2.85;2.15;;;;;;;11.03;59.60;98471.47;5051507;28;20196;-56
2023/12/27 01:04:23;;;;;;;3.95;2.70;;;;;;;11.06;60.21;98471.22;5051792;28;20205;-56
2023/12/27 01:06:50;;;;;;;2.75;2.53;;;;;;;10.98;60.62;98466.59;5053338;28;20664;-56
2023/12/27 01:09:17;;;;;;;3.63;2.47;;;;;;;10.81;60.37;98448.78;5018722;28;20193;-56
2023/12/27 01:11:44;;;;;;;2.40;2.20;;;;;;;10.81;60.94;98466.09;5053951;28;20204;-56
2023/12/27 01:14:09;;;;;;;3.53;2.58;;;;;;;10.69;61.68;98454.00;5053751;28;20186;-56
2023/12/27 01:16:35;;;;;;;3.97;2.35;;;;;;;10.18;62.69;98385.94;5054925;28;20181;-56
2023/12/27 01:19:00;;;;;;;2.90;2.30;;;;;;;10.59;63.22;98474.50;5053673;28;20178;-56
2023/12/27 01:21:26;;;;;;;3.67;2.60;;;;;;;10.50;63.57;98464.75;5055500;28;20263;-56
2023/12/27 01:23:51;;;;;;;5.57;2.60;;;;;;;10.07;63.92;98391.94;5053578;28;20288;-56
2023/12/27 01:26:17;;;;;;;4.60;2.60;;;;;;;10.47;64.23;98464.97;5054724;28;20193;-56
2023/12/27 01:28:42;;;;;;;6.70;3.25;;;;;;;10.48;64.61;98461.47;5053294;28;20268;-56
2023/12/27 01:31:10;;;;;;;2.58;2.08;;;;;;;10.29;64.14;98408.47;5053492;28;20177;-56
2023/12/27 01:33:36;;;;;;;3.00;2.13;;;;;;;10.25;63.09;98407.03;5053630;28;20664;-56
2023/12/27 01:36:06;;;;;;;3.97;2.60;;;;;;;10.67;62.70;98467.03;5053367;28;20209;-56
2023/12/27 01:38:31;;;;;;;3.88;2.40;;;;;;;10.21;62.36;98380.53;5053486;28;20177;-56
2023/12/27 01:40:57;;;;;;;6.13;2.38;;;;;;;10.17;63.22;98373.09;5053535;28;20663;-56
2023/12/27 01:43:22;;;;;;;7.20;2.30;;;;;;;10.62;63.31;98458.75;5053114;28;20229;-56
2023/12/27 01:45:50;;;;;;;3.88;2.38;;;;;;;10.69;64.25;98459.19;5053661;28;20185;-56
2023/12/27 01:48:20;;;;;;;3.75;2.53;;;;;;;10.59;64.67;98421.91;5053366;28;20170;-56
2023/12/27 01:50:46;;;;;;;5.72;2.38;;;;;;;10.79;64.24;98421.41;5053507;28;20277;-56
2023/12/27 01:53:12;;;;;;;3.25;2.35;;;;;;;11.07;63.72;98444.41;5053403;28;20695;-56
2023/12/27 01:55:37;;;;;;;2.88;2.38;;;;;;;10.87;63.70;98372.50;5053383;28;20662;-56
2023/12/27 01:58:07;;;;;;;3.33;2.60;;;;;;;11.30;63.20;98428.06;5053395;28;20208;-56
2023/12/27 02:00:36;;;;;;;3.58;2.30;;;;;;;11.12;62.83;98369.81;5053210;28;20736;-56
2023/12/27 02:03:01;;;;;;;4.35;2.22;;;;;;;11.32;62.16;98371.81;5050459;28;20217;-56
2023/12/27 02:05:26;;;;;;;5.40;2.45;;;;;;;11.93;61.49;98439.84;5050670;28;20256;-56
2023/12/27 02:07:52;;;;;;;5.15;2.55;;;;;;;12.03;60.62;98416.66;5050536;28;20194;-56
2023/12/27 02:10:17;;;;;;;3.85;2.40;;;;;;;12.08;60.29;98394.63;5050609;28;20182;-56
2023/12/27 02:12:43;;;;;;;3.50;2.45;;;;;;;12.35;60.00;98436.66;5050392;28;20258;-56
2023/12/27 02:15:09;;;;;;;4.60;2.35;;;;;;;12.54;59.49;98452.47;5050200;28;20181;-56
2023/12/27 02:17:35;;;;;;;2.58;2.38;;;;;;;12.29;58.75;98376.59;5050313;28;20216;-56
2023/12/27 02:20:01;;;;;;;2.53;2.33;;;;;;;12.49;58.70;98400.09;5050100;28;20186;-56
2023/12/27 02:22:30;;;;;;;3.92;2.20;;;;;;;12.58;59.52;98443.53;5050072;28;20218;-56
2023/12/27 02:24:57;;;;;;;3.38;2.35;;;;;;;12.67;58.94;98435.03;5049988;28;20194;-56
2023/12/27 02:27:23;;;;;;;2.55;2.33;;;;;;;12.88;59.19;98459.34;5050232;28;20178;-56
2023/12/27 02:29:48;;;;;;;4.95;2.60;;;;;;;12.48;58.79;98414.03;5049508;28;20648;-56
2023/12/27 02:32:14;;;;;;;4.32;2.45;;;;;;;12.86;59.44;98473.41;5050011;28;20234;-56
2023/12/27 02:34:39;;;;;;;5.35;2.40;;;;;;;12.44;59.76;98394.44;5051513;28;20639;-56
2023/12/27 02:37:05;;;;;;;5.03;2.42;;;;;;;12.62;59.84;98431.16;5052324;28;20174;-56
2023/12/27 02:39:30;;;;;;;3.53;2.30;;;;;;;12.80;60.18;98479.06;5051813;28;20209;-56
2023/12/27 02:41:55;;;;;;;6.35;2.60;;;;;;;12.83;60.44;98476.25;5052210;28;20253;-56
2023/12/27 02:44:21;;;;;;;2.33;1.90;;;;;;;12.70;60.76;98449.53;5052167;28;20209;-56
2023/12/27 02:46:47;;;;;;;2.15;1.95;;;;;;;12.39;60.81;98414.75;5052335;28;20188;-56
2023/12/27 02:49:12;;;;;;;3.08;2.28;;;;;;;12.74;61.31;98487.31;5052289;28;20185;-56
2023/12/27 02:51:37;;;;;;;4.80;2.30;;;;;;;12.63;61.54;98495.09;5052245;28;20180;-56
2023/12/27 02:54:06;;;;;;;3.42;1.70;;;;;;;12.53;62.13;98483.75;5052163;28;20192;-56
2023/12/27 02:56:31;;;;;;;5.45;2.05;;;;;;;12.24;62.04;98439.22;5052063;28;20224;-56
2023/12/27 02:58:56;;;;;;;5.85;2.70;;;;;;;12.02;62.14;98421.00;5051906;28;20224;-56
2023/12/27 03:01:22;;;;;;;2.45;1.65;;;;;;;12.30;62.86;98484.63;5051972;28;20185;-56
2023/12/27 03:03:47;;;;;;;3.90;2.22;;;;;;;12.44;63.08;98515.59;5052080;28;20206;-56
2023/12/27 03:06:12;;;;;;;5.70;2.15;;;;;;;11.88;63.02;98422.97;5051966;28;20660;-56
2023/12/27 03:08:38;;;;;;;3.22;2.20;;;;;;;11.86;63.49;98430.03;5051631;28;20261;-56
2023/12/27 03:11:06;;;;;;;2.40;2.03;;;;;;;11.78;64.33;98429.78;5051823;28;20174;-56
2023/12/27 03:13:32;;;;;;;3.80;2.40;;;;;;;12.11;64.40;98497.31;5051688;28;20177;-56
2023/12/27 03:15:57;;;;;;;1.90;1.80;;;;;;;12.19;64.19;98526.13;5051784;28;20185;-56
2023/12/27 03:18:22;;;;;;;4.53;2.40;;;;;;;12.07;63.63;98512.28;5051578;28;20178;-56
2023/12/27 03:20:48;;;;;;;2.40;1.73;;;;;;;11.71;63.82;98441.50;5051607;28;20196;-56
2023/12/27 03:23:14;;;;;;;3.33;2.40;;;;;;;12.05;62.79;98469.22;5051543;28;20202;-56
2023/12/27 03:25:39;;;;;;;3.75;2.33;;;;;;;12.21;63.52;98498.28;5051186;28;20217;-56
2023/12/27 03:28:05;;;;;;;3.78;2.25;;;;;;;12.39;61.94;98528.91;5051588;28;20180;-56
2023/12/27 03:30:30;;;;;;;3.03;2.05;;;;;;;12.14;62.02;98460.78;5051526;28;20227;-56
2023/12/27 03:32:55;;;;;;;2.38;2.15;;;;;;;12.34;61.76;98463.56;5051590;28;20269;-56
2023/12/27 03:35:21;;;;;;;3.35;1.73;;;;;;;12.90;61.38;98529.38;5051589;28;20181;-56
2023/12/27 03:37:46;;;;;;;4.50;1.98;;;;;;;12.82;61.25;98508.31;5051445;28;20217;-56
2023/12/27 03:40:12;;;;;;;3.75;2.13;;;;;;;13.04;60.68;98536.94;5051215;28;20184;-56
2023/12/27 03:42:37;;;;;;;2.92;2.17;;;;;;;12.99;60.93;98513.09;5050398;28;20174;-56
2023/12/27 03:45:03;;;;;;;2.90;2.10;;;;;;;13.16;61.43;98525.63;5051478;28;20188;-56
2023/12/27 03:47:28;;;;;;;4.88;2.30;;;;;;;13.37;61.75;98534.38;5051330;28;20652;-56
2023/12/27 03:49:54;;;;;;;2.85;1.77;;;;;;;13.16;61.68;98505.69;5051214;28;20621;-56
2023/12/27 03:52:19;;;;;;;3.88;2.42;;;;;;;13.19;62.23;98541.00;5051175;28;20716;-56
2023/12/27 03:54:45;;;;;;;4.53;2.40;;;;;;;13.22;62.14;98532.94;5051322;28;20662;-56
2023/12/27 03:57:11;;;;;;;5.53;2.65;;;;;;;13.02;62.22;98499.88;5051336;28;20235;-56
2023/12/27 03:59:37;;;;;;;5.30;2.35;;;;;;;12.98;62.55;98504.50;5051360;28;20600;-56
2023/12/27 04:02:03;;;;;;;4.45;2.63;;;;;;;13.23;62.97;98551.03;5051416;28;20660;-56
2023/12/27 04:04:29;;;;;;;2.55;2.35;;;;;;;13.07;63.45;98545.34;5051261;28;20212;-56
2023/12/27 04:06:54;;;;;;;5.15;2.50;;;;;;;12.54;63.59;98469.84;5051272;28;20178;-56
2023/12/27 04:09:20;;;;;;;5.57;2.30;;;;;;;13.04;62.99;98552.53;5051271;28;20301;-56
2023/12/27 04:11:45;;;;;;;3.80;2.08;;;;;;;13.03;62.86;98551.72;5051146;28;20581;-56
2023/12/27 04:14:14;;;;;;;4.95;2.28;;;;;;;12.44;63.45;98476.66;5051417;28;20247;-56
2023/12/27 04:16:40;;;;;;;10.82;6.32;;;;;;;12.28;64.12;98478.72;5051051;28;20174;-56
2023/12/27 04:19:05;;;;;;;4.35;3.00;;;;;;;12.64;61.13;98554.69;5051235;28;20601;-56
2023/12/27 04:21:31;;;;;;;5.20;3.17;;;;;;;12.06;61.68;98470.88;5051236;28;20177;-56
2023/12/27 04:23:56;;;;;;;3.28;2.53;;;;;;;11.93;61.28;98473.56;5050742;28;20209;-56
2023/12/27 04:26:22;;;;;;;2.47;2.20;;;;;;;11.84;61.17;98488.97;5050867;28;20628;-56
2023/12/27 04:28:47;;;;;;;2.47;1.80;;;;;;;11.90;60.55;98515.25;5048508;28;20264;-57
2023/12/27 04:31:13;;;;;;;2.55;2.08;;;;;;;11.70;59.35;98496.88;5048484;28;20249;-57
2023/12/27 04:33:38;;;;;;;3.50;2.13;;;;;;;11.78;60.20;98541.25;5048438;28;20239;-56
2023/12/27 04:36:05;;;;;;;2.28;1.75;;;;;;;11.75;61.07;98575.16;5048308;28;20581;-56
2023/12/27 04:38:30;;;;;;;3.35;2.38;;;;;;;11.34;62.94;98527.97;5048326;28;20335;-56
2023/12/27 04:40:56;;;;;;;2.78;2.15;;;;;;;11.55;65.08;98548.00;5048279;28;20762;-56
2023/12/27 04:43:21;;;;;;;2.60;2.33;;;;;;;11.47;64.80;98552.06;5048332;28;20224;-56
2023/12/27 04:45:48;;;;;;;4.03;2.38;;;;;;;11.56;64.52;98567.00;5048315;28;20273;-56
2023/12/27 04:48:14;;;;;;;2.75;1.98;;;;;;;11.57;65.19;98540.13;5048037;28;20676;-56
2023/12/27 04:50:39;;;;;;;2.47;2.22;;;;;;;11.86;64.72;98555.31;5048285;28;20299;-56
2023/12/27 04:53:05;;;;;;;4.75;2.50;;;;;;;11.75;64.50;98538.84;5049350;28;20217;-56
2023/12/27 04:55:30;;;;;;;2.63;2.28;;;;;;;11.83;63.81;98541.72;5052011;28;20196;-56
2023/12/27 04:57:55;;;;;;;3.22;2.55;;;;;;;12.46;64.40;98626.13;5051977;28;20727;-56
2023/12/27 05:00:22;;;;;;;3.65;2.30;;;;;;;12.56;64.25;98613.31;5067157;28;20189;-56
2023/12/27 05:02:48;;;;;;;5.43;2.53;;;;;;;12.73;63.59;98618.09;5071763;28;20201;-56
2023/12/27 05:05:13;;;;;;;3.83;2.33;;;;;;;12.80;61.97;98638.28;5071994;28;20177;-56
2023/12/27 05:07:39;;;;;;;4.85;3.10;;;;;;;12.37;62.58;98564.50;5072041;28;20189;-56
2023/12/27 05:10:04;;;;;;;4.53;2.45;;;;;;;12.50;63.04;98598.19;5072036;28;20241;-56
2023/12/27 05:12:30;;;;;;;3.25;2.30;;;;;;;12.47;60.63;98603.56;5071997;28;20181;-56
2023/12/27 05:14:55;;;;;;;5.63;3.20;;;;;;;12.14;60.29;98577.50;5071606;28;20189;-56
2023/12/27 05:17:21;;;;;;;3.40;3.10;;;;;;;11.89;61.82;98580.19;5071538;28;20223;-56
2023/12/27 05:19:47;;;;;;;5.75;2.70;;;;;;;11.93;63.26;98602.38;5058408;28;20182;-56
2023/12/27 05:22:12;;;;;;;2.63;2.42;;;;;;;12.10;60.86;98646.94;5054314;28;20533;-56
2023/12/27 05:24:37;;;;;;;3.00;2.63;;;;;;;12.00;62.50;98651.09;5053848;28;20209;-56
2023/12/27 05:27:03;;;;;;;2.67;2.47;;;;;;;11.43;62.54;98564.41;5053592;28;20566;-56
2023/12/27 05:29:28;;;;;;;4.68;2.92;;;;;;;11.53;62.80;98606.06;5054105;28;20180;-56
2023/12/27 05:31:54;;;;;;;5.28;3.40;;;;;;;11.14;64.21;98567.38;5053805;28;20604;-56
2023/12/27 05:34:19;;;;;;;6.13;2.28;;;;;;;11.57;66.25;98630.84;5053851;28;20178;-56
2023/12/27 05:36:45;;;;;;;2.83;2.20;;;;;;;11.41;66.35;98575.81;5053780;28;20170;-56
2023/12/27 05:39:12;;;;;;;3.13;2.83;;;;;;;11.66;66.66;98599.09;5053776;28;20178;-56
2023/12/27 05:41:37;;;;;;;6.07;2.55;;;;;;;11.82;66.64;98630.81;5053681;28;20205;-56
2023/12/27 05:44:03;;;;;;;3.13;2.70;;;;;;;11.62;65.49;98602.88;5053537;28;20359;-56
2023/12/27 05:46:33;;;;;;;4.68;2.88;;;;;;;11.30;64.68;98575.72;5053319;28;20173;-56
2023/12/27 05:48:58;;;;;;;3.63;2.50;;;;;;;11.45;66.63;98616.94;5053253;28;20178;-56
2023/12/27 05:51:24;;;;;;;4.25;2.50;;;;;;;11.58;66.93;98624.72;5053524;28;20180;-56
2023/12/27 05:53:50;;;;;;;5.63;2.83;;;;;;;11.45;67.27;98616.94;5053400;28;20204;-56
2023/12/27 05:56:16;;;;;;;3.88;2.50;;;;;;;11.47;67.43;98619.44;5053276;28;20185;-56
2023/12/27 05:58:41;;;;;;;2.47;1.98;;;;;;;11.95;66.27;98673.94;5053265;28;20564;-55
2023/12/27 06:01:09;;;;;;;3.10;2.25;;;;;;;12.00;66.48;98671.84;5053178;28;20203;-56
2023/12/27 06:03:34;;;;;;;5.03;2.30;;;;;;;11.77;65.82;98601.78;5053115;28;20248;-56
2023/12/27 06:06:02;;;;;;;4.90;2.38;;;;;;;11.71;66.78;98607.41;5029709;28;20218;-56
2023/12/27 06:08:27;;;;;;;5.03;2.70;;;;;;;11.86;62.50;98640.03;5030688;28;20689;-56
2023/12/27 06:10:53;;;;;;;5.60;2.30;;;;;;;11.61;63.91;98593.44;5030650;28;20213;-56
2023/12/27 06:13:18;;;;;;;4.32;2.78;;;;;;;11.55;64.41;98599.03;5030708;28;20255;-56
2023/12/27 06:15:44;;;;;;;5.80;4.43;;;;;;;11.70;64.31;98649.81;5030457;28;20383;-56
2023/12/27 06:18:09;;;;;;;4.57;3.53;;;;;;;11.57;64.62;98646.38;5030565;28;20187;-56
2023/12/27 06:20:35;;;;;;;3.90;3.38;;;;;;;11.59;63.48;98645.38;5030462;28;20195;-56
2023/12/27 06:23:00;;;;;;;4.18;3.45;;;;;;;11.33;63.22;98604.81;5030420;28;20210;-56
2023/12/27 06:25:26;;;;;;;4.10;3.30;;;;;;;11.23;63.12;98610.75;5030144;28;20704;-56
2023/12/27 06:27:51;;;;;;;3.47;2.55;;;;;;;11.25;65.29;98604.53;5030238;28;20185;-56
2023/12/27 06:30:16;;;;;;;4.30;2.97;;;;;;;11.50;65.40;98653.72;5030538;28;20269;-56
2023/12/27 06:32:42;;;;;;;4.65;3.50;;;;;;;11.70;66.09;98701.66;5030472;28;20221;-56
2023/12/27 06:35:07;;;;;;;4.68;3.03;;;;;;;11.68;66.13;98701.75;5030190;28;20194;-56
2023/12/27 06:37:33;;;;;;;5.40;3.47;;;;;;;11.15;65.86;98626.00;5039426;28;20182;-56
2023/12/27 06:39:58;;;;;;;5.85;3.45;;;;;;;11.49;65.35;98695.31;5049948;28;20189;-56
2023/12/27 06:42:23;;;;;;;4.60;3.22;;;;;;;11.32;65.01;98680.88;5049806;28;20189;-56
2023/12/27 06:44:49;;;;;;;6.55;3.55;;;;;;;11.27;64.75;98687.31;5049768;28;20251;-57
2023/12/27 06:47:15;;;;;;;14.63;4.28;;;;;;;11.45;63.28;98718.00;5035375;28;20736;-56
2023/12/27 06:49:40;;;;;;;6.38;3.70;;;;;;;11.33;63.64;98729.19;5027565;28;20186;-56
2023/12/27 06:52:05;;;;;;;2.65;2.10;;;;;;;11.23;65.36;98688.44;5027137;28;20296;-56
2023/12/27 06:54:31;;;;;;;4.55;2.50;;;;;;;11.34;64.93;98702.38;5018584;28;20195;-56
2023/12/27 06:56:59;;;;;;;3.00;2.60;;;;;;;11.32;65.12;98704.19;4989897;28;20274;-56
2023/12/27 06:59:24;;;;;;;4.43;2.88;;;;;;;11.27;65.78;98688.13;4990060;28;20190;-56
2023/12/27 07:01:49;;;;;;;3.35;2.22;;;;;;;11.44;65.19;98707.75;4989963;28;20199;-56
2023/12/27 07:04:15;;;;;;;5.45;2.22;;;;;;;11.48;64.31;98727.31;4989858;28;20280;-56
2023/12/27 07:06:40;;;;;;;3.67;1.95;;;;;;;11.26;64.48;98703.81;4989862;28;20206;-56
2023/12/27 07:09:07;;;;;;;3.92;1.70;;;;;;;11.52;63.89;98731.38;4989797;28;20723;-56
2023/12/27 07:11:32;;;;;;;4.95;2.17;;;;;;;11.62;64.48;98742.81;4989762;28;20188;-55
2023/12/27 07:13:57;;;;;;;2.78;1.80;;;;;;;11.83;62.44;98768.13;4989769;28;20192;-56
2023/12/27 07:16:23;;;;;;;2.22;1.90;;;;;;;11.62;62.04;98735.84;4989510;28;20679;-56
2023/12/27 07:18:48;;;;;;;2.95;2.33;;;;;;;11.65;61.00;98733.06;4989585;28;20345;-56
2023/12/27 07:21:14;;;;;;;2.85;2.25;;;;;;;11.34;60.59;98696.34;4989694;28;20583;-56
2023/12/27 07:23:39;;;;;;;6.18;2.50;;;;;;;11.41;60.18;98703.59;4989507;28;20214;-56
2023/12/27 07:26:05;;;;;;;3.67;2.25;;;;;;;11.81;60.50;98790.75;4989165;28;20638;-56
2023/12/27 07:28:31;;;;;;;5.68;2.60;;;;;;;11.16;60.77;98672.47;5030396;28;20198;-56
2023/12/27 07:30:57;;;;;;;2.63;2.42;;;;;;;11.60;60.92;98729.13;5030886;28;20500;-56
2023/12/27 07:33:23;;;;;;;3.97;2.50;;;;;;;11.99;60.36;98783.47;5030863;28;20183;-56
2023/12/27 07:35:48;;;;;;;3.03;2.75;;;;;;;11.63;59.78;98728.94;5030600;28;20179;-56
2023/12/27 07:38:13;;;;;;;4.35;3.38;;;;;;;12.12;59.80;98807.63;5030545;28;20178;-56
2023/12/27 07:40:40;;;;;;;17.70;7.28;;;;;;;11.86;59.75;98735.97;5031230;28;20174;-56
2023/12/27 07:43:06;;;;;;;6.57;3.80;;;;;;;12.30;59.08;98819.31;5031552;28;20210;-56
2023/12/27 07:45:33;;;;;;;3.47;2.25;;;;;;;12.07;58.95;98794.16;5031179;28;20223;-56
2023/12/27 07:47:58;;;;;;;3.40;2.30;;;;;;;12.31;56.98;98815.81;5030610;28;20193;-56
2023/12/27 07:50:24;;;;;;;3.30;2.30;;;;;;;12.01;58.12;98782.41;5030737;28;20178;-56
2023/12/27 07:52:49;;;;;;;5.07;2.35;;;;;;;11.83;58.56;98741.34;5030979;28;20171;-56
2023/12/27 07:55:15;;;;;;;4.75;2.78;;;;;;;12.20;59.09;98798.38;5048231;28;20336;-56
2023/12/27 07:57:41;;;;;;;2.80;2.60;;;;;;;12.01;59.32;98734.94;5048175;28;20224;-56
2023/12/27 08:00:08;;;;;;;3.03;1.63;;;;;;;12.66;60.15;98825.38;5048233;28;20186;-56
2023/12/27 08:02:33;;;;;;;5.30;3.10;;;;;;;12.84;60.71;98821.50;5048539;28;20678;-56
2023/12/27 08:04:59;;;;;;;3.95;2.67;;;;;;;12.64;60.20;98790.09;5048598;28;20425;-56
2023/12/27 08:07:24;;;;;;;4.18;2.55;;;;;;;13.05;57.53;98835.59;5056347;28;20199;-56
2023/12/27 08:09:49;;;;;;;4.97;2.45;;;;;;;13.03;58.07;98827.09;5068213;28;20735;-56
2023/12/27 08:12:15;;;;;;;4.85;2.85;;;;;;;12.77;57.34;98759.75;5047992;28;20197;-56
2023/12/27 08:14:40;;;;;;;3.13;2.58;;;;;;;13.05;56.00;98808.78;5048043;28;20687;-56
2023/12/27 08:17:07;;;;;;;6.45;2.50;;;;;;;13.08;55.50;98814.56;5048082;28;20186;-56
2023/12/27 08:19:32;;;;;;;3.70;2.85;;;;;;;12.83;55.88;98772.28;5048124;28;20197;-56
2023/12/27 08:21:58;;;;;;;3.83;2.20;;;;;;;13.24;55.56;98856.69;5048274;28;20190;-56
2023/12/27 08:24:24;;;;;;;5.85;2.90;;;;;;;12.82;55.80;98789.63;5048179;28;20213;-56
2023/12/27 08:26:49;;;;;;;10.48;4.43;;;;;;;13.03;55.69;98815.84;5013184;28;20552;-56
2023/12/27 08:29:15;;;;;;;2.75;1.70;;;;;;;13.27;57.54;98829.66;5011421;28;20183;-56
2023/12/27 08:31:41;;;;;;;7.35;2.25;;;;;;;13.15;57.46;98789.81;5012364;28;20187;-56
2023/12/27 08:34:06;;;;;;;2.03;1.35;;;;;;;13.86;57.65;98876.34;5012239;28;20654;-56
2023/12/27 08:36:32;;;;;;;2.22;2.03;;;;;;;13.71;57.57;98809.03;5012272;28;20641;-56
2023/12/27 08:38:58;;;;;;;3.65;2.20;;;;;;;13.90;56.24;98828.34;5017396;28;20287;-56
2023/12/27 08:41:24;;;;;;;2.90;1.50;;;;;;;13.91;56.29;98806.59;5017978;28;20323;-56
2023/12/27 08:43:54;;;;;;;2.70;1.90;;;;;;;14.26;55.99;98837.75;5030854;28;20214;-56
2023/12/27 08:46:23;;;;;;;3.60;1.40;;;;;;;14.71;55.45;98874.13;5041687;28;20189;-56
2023/12/27 08:48:48;;;;;;;1.17;1.08;;;;;;;14.34;55.06;98778.16;5039028;28;20669;-56
2023/12/27 08:51:14;;;;;;;1.48;1.10;;;;;;;14.59;54.19;98788.28;5041676;28;20196;-56
2023/12/27 08:53:39;;;;;;;2.55;1.60;;;;;;;15.10;54.33;98867.53;5040978;28;20183;-56
2023/12/27 08:56:05;;;;;;;2.10;1.88;;;;;;;14.94;54.28;98820.19;5051832;28;20186;-56
2023/12/27 08:58:32;;;;;;;1.95;1.50;;;;;;;15.25;53.86;98864.53;5051868;28;20546;-55
2023/12/27 09:00:58;;;;;;;1.05;1.05;;;;;;;15.08;53.13;98815.53;5051009;28;20236;-55
2023/12/27 09:03:24;;;;;;;2.28;1.08;;;;;;;14.86;51.96;98747.00;5051160;28;20270;-56
2023/12/27 09:05:49;;;;;;;1.48;1.20;;;;;;;15.65;52.30;98864.78;5051376;28;20289;-55
2023/12/27 09:08:15;;;;;;;1.45;1.35;;;;;;;15.33;51.94;98794.38;5051727;28;20182;-55
2023/12/27 09:10:40;;;;;;;1.88;1.20;;;;;;;15.85;51.92;98856.16;5059282;28;20244;-55
2023/12/27 09:13:05;;;;;;;2.42;1.02;;;;;;;15.91;51.05;98853.84;5050737;28;20205;-57
2023/12/27 09:15:31;;;;;;;2.58;0.77;;;;;;;15.88;51.27;98829.78;5051032;28;20186;-55
2023/12/27 09:17:56;;;;;;;2.08;1.20;;;;;;;16.04;51.13;98846.63;5051159;28;20190;-55
2023/12/27 09:20:22;;;;;;;2.08;1.13;;;;;;;16.08;50.85;98839.38;5049165;28;20204;-56
2023/12/27 09:22:48;;;;;;;1.98;1.40;;;;;;;15.79;51.13;98786.19;5048953;28;20190;-56
2023/12/27 09:25:14;;;;;;;1.85;1.20;;;;;;;16.05;50.57;98824.00;5049504;28;20290;-57
2023/12/27 09:27:39;;;;;;;1.42;1.20;;;;;;;16.14;50.96;98839.69;5049026;28;20285;-55
2023/12/27 09:30:06;;;;;;;1.75;1.50;;;;;;;16.09;50.99;98817.56;5048378;28;20309;-55
2023/12/27 09:32:32;;;;;;;2.80;2.15;;;;;;;16.15;50.74;98819.66;5050350;28;20194;-56
2023/12/27 09:34:57;;;;;;;2.25;1.60;;;;;;;15.92;50.71;98792.06;5050527;28;20564;-55
2023/12/27 09:37:23;;;;;;;2.17;1.60;;;;;;;15.91;50.25;98777.34;5035289;28;20194;-57
2023/12/27 09:39:48;;;;;;;1.38;1.27;;;;;;;16.16;49.49;98811.66;5027325;28;20285;-55
2023/12/27 09:42:15;;;;;;;1.40;1.27;;;;;;;15.92;50.01;98755.50;5028276;28;20248;-56
2023/12/27 09:44:43;;;;;;;2.75;1.52;;;;;;;16.14;50.18;98794.47;5008939;28;20745;-55
2023/12/27 09:47:11;;;;;;;1.45;1.27;;;;;;;16.06;50.09;98762.97;5009409;28;20191;-55
2023/12/27 09:49:38;;;;;;;2.20;1.42;;;;;;;16.03;48.36;98751.03;5009322;28;20218;-55
2023/12/27 09:52:05;;;;;;;1.70;1.15;;;;;;;16.15;48.39;98780.50;5009664;28;20183;-56
2023/12/27 09:54:30;;;;;;;1.17;1.08;;;;;;;16.00;47.46;98737.41;5011383;28;20685;-56
2023/12/27 09:56:56;;;;;;;3.47;1.50;;;;;;;16.18;47.99;98764.53;5011128;28;20194;-56
2023/12/27 09:59:29;;;;;;;2.50;1.33;;;;;;;16.30;47.60;98802.66;5010947;28;20195;-56
2023/12/27 10:02:01;;;;;;;1.73;1.20;;;;;;;16.55;47.95;98837.03;5010811;28;20309;-55
2023/12/27 10:04:44;;;;;;;2.03;1.25;;;;;;;16.57;47.63;98818.63;4971540;28;20212;-56
2023/12/27 10:07:11;;;;;;;1.30;1.20;;;;;;;16.15;47.33;98738.72;4971870;28;20268;-56
2023/12/27 10:09:37;;;;;;;2.08;1.35;;;;;;;16.64;46.91;98801.47;4971640;28;20215;-56
2023/12/27 10:12:04;;;;;;;1.42;1.33;;;;;;;16.66;46.12;98812.59;4991058;28;20736;-56
2023/12/27 10:14:35;;;;;;;1.63;1.25;;;;;;;16.02;46.89;98691.09;4990741;28;20200;-56
2023/12/27 10:17:00;;;;;;;1.30;1.20;;;;;;;16.67;46.70;98798.59;4990816;28;20290;-56
2023/12/27 10:19:41;;;;;;;1.40;1.30;;;;;;;16.72;46.23;98802.44;4971568;28;20189;-56
2023/12/27 10:22:07;;;;;;;1.70;1.60;;;;;;;16.44;45.66;98755.34;4971238;28;20276;-56
2023/12/27 10:24:34;;;;;;;2.80;2.42;;;;;;;16.49;46.49;98755.78;4971117;28;20224;-56
2023/12/27 10:27:01;;;;;;;4.30;2.08;;;;;;;16.49;46.47;98746.13;4971576;28;20192;-56
2023/12/27 10:29:27;;;;;;;4.00;1.98;;;;;;;16.74;46.14;98791.88;4971433;28;20272;-56
2023/12/27 10:31:52;;;;;;;2.78;2.08;;;;;;;16.56;46.20;98749.06;4971233;28;20242;-55
2023/12/27 10:34:20;;;;;;;1.98;1.60;;;;;;;16.78;45.46;98775.78;4970753;28;20192;-55
2023/12/27 10:36:46;;;;;;;2.20;1.95;;;;;;;16.42;45.68;98707.63;4951685;28;20205;-55
2023/12/27 10:39:12;;;;;;;2.05;1.40;;;;;;;16.37;46.03;98702.78;4951950;28;20208;-55
2023/12/27 10:41:38;;;;;;;1.50;1.40;;;;;;;16.81;45.38;98774.69;4951835;28;20189;-55
2023/12/27 10:44:06;;;;;;;2.50;1.60;;;;;;;16.61;46.09;98718.94;4951801;28;20217;-55
2023/12/27 10:46:33;;;;;;;3.28;1.90;;;;;;;16.75;45.61;98738.63;4969712;28;20567;-55
2023/12/27 10:49:03;;;;;;;2.55;2.00;;;;;;;16.49;45.32;98680.81;5024188;28;20192;-55
2023/12/27 10:51:30;;;;;;;1.45;1.33;;;;;;;16.66;44.07;98697.63;5029059;28;20735;-55
2023/12/27 10:54:00;;;;;;;1.75;1.42;;;;;;;17.03;43.85;98767.41;5049296;28;20211;-55
2023/12/27 10:56:26;;;;;;;1.40;1.30;;;;;;;16.99;44.07;98733.84;5055525;28;20196;-56
2023/12/27 10:58:56;;;;;;;1.65;1.35;;;;;;;16.63;44.00;98682.22;5069307;28;20356;-55
2023/12/27 11:01:23;;;;;;;1.17;1.08;;;;;;;16.42;43.89;98640.53;5029264;28;20186;-56
2023/12/27 11:03:50;;;;;;;2.28;1.15;;;;;;;17.12;44.05;98764.00;5029591;28;20217;-55
2023/12/27 11:06:19;;;;;;;1.35;1.25;;;;;;;16.83;44.02;98716.09;5029280;28;20197;-56
2023/12/27 11:08:46;;;;;;;3.42;2.10;;;;;;;17.16;44.05;98769.75;5029114;28;20201;-55
2023/12/27 11:11:15;;;;;;;1.75;1.38;;;;;;;16.79;43.79;98708.66;5029232;28;20232;-55
2023/12/27 11:13:42;;;;;;;5.38;1.88;;;;;;;17.13;43.61;98749.13;5028982;28;20705;-55
2023/12/27 11:16:09;;;;;;;1.90;1.67;;;;;;;17.23;43.29;98757.78;5028940;28;20194;-57
2023/12/27 11:18:35;;;;;;;1.50;1.40;;;;;;;16.91;42.59;98697.09;5029067;28;20182;-56
2023/12/27 11:21:01;;;;;;;1.45;1.33;;;;;;;17.28;42.94;98768.66;5028923;28;20865;-56
2023/12/27 11:23:27;;;;;;;2.10;1.20;;;;;;;17.18;42.40;98744.28;5028980;28;20209;-56
2023/12/27 11:25:54;;;;;;;1.30;1.17;;;;;;;17.12;42.30;98743.06;5010765;28;20207;-55
2023/12/27 11:28:20;;;;;;;2.10;1.85;;;;;;;16.91;42.57;98702.34;5009110;28;20272;-56